Iliamna Airport
PAIL : now visible

Airfield :











YOU CAN JOIN US ON...

 
LOGIN :

Register | Disclaimer

   EN    FR    IT 

 









Legend :    VFR   Marginal VFR   IFR   Intensive IFR   Very Intensive IFR
Visi :
Ceiling :
>= 8 km
>= 3000ft
5 to 8 km
1000 to 3000 ft
1500m to 5 km
500 to 1000 ft
800 to 1500m
200 to 500 ft
< 800m
< 200 ft
Symbols :   Thunderstorms  Fog  Heavy snow  Heavy precipitations  Wind > 20 kt






- Airport Elevation : 192 ft
- IATA code : ILI


PAIL - Iliamna

CURRENT METAR :
  • 301853Z 04004KT 10SM CLR M14/M18 A3007 RMK AO2 SLP188 T11391183

EXPIRED METARs :
  • 301753Z 01005KT 10SM CLR M17/M19 A3006 RMK AO2 SLP187 T11671189 11167 21206 53003
  • 301653Z 00000KT 10SM CLR M19/M20 A3005 RMK AO2 SLP183 T11891200

TAF PAIL
Valid from the 30 at 18:00 until the 31 at 18:00 UTC


301738Z 3018/3118 33006KT P6SM SKC



MET'MAP, your aeronautical weather chart ! - Copyright ORBIFLY December 2007 - Disclaimer

ORBIFLY MET'MAP TEAM :

Programming & Development : Alexandra Zaïnal
Concept & original design : Baudouin d'Aumeries
Assistance for programming : Marc-Olivier Méhu
Technical & hardware support : Manuel Goepfert

Contact : metmap@orbifly.com




SOURCES & CREDITS :

   NOAA       Earth
Advisory